Time;durP1;ratioP1;P1;durP2;ratioP2;P2;SDS_P1;SDS_P2;PMS_P1;PMS_P2;Temp;Humidity;BMP_temperature;BMP_pressure;BME280_temperature;BME280_humidity;BME280_pressure;Samples;Min_cycle;Max_cycle;Signal;HPM_P1;HPM_P2
2023/05/06 00:01:05;;;;;;;3.85;2.85;;;13.20;99.90;;;;;;5071692;28;20052;-59
2023/05/06 00:03:31;;;;;;;5.07;3.03;;;13.10;99.90;;;;;;5072216;28;20127;-59
2023/05/06 00:05:56;;;;;;;6.85;3.13;;;13.10;99.90;;;;;;5072362;28;20123;-59
2023/05/06 00:08:22;;;;;;;4.00;3.20;;;13.10;99.90;;;;;;5072325;28;20033;-59
2023/05/06 00:10:48;;;;;;;5.70;2.80;;;13.00;99.90;;;;;;5072450;28;20456;-58
2023/05/06 00:13:13;;;;;;;5.57;3.45;;;13.00;99.90;;;;;;5072507;28;20456;-58
2023/05/06 00:15:39;;;;;;;8.40;3.90;;;13.00;99.90;;;;;;5072567;28;20024;-58
2023/05/06 00:18:05;;;;;;;5.57;3.47;;;13.00;99.90;;;;;;5072244;28;20032;-58
2023/05/06 00:20:31;;;;;;;3.40;3.10;;;13.00;99.90;;;;;;5070753;28;20112;-59
2023/05/06 00:22:57;;;;;;;6.13;3.35;;;13.00;99.90;;;;;;5071028;28;20056;-58
2023/05/06 00:25:23;;;;;;;2.75;2.55;;;12.90;99.90;;;;;;5072125;28;20103;-58
2023/05/06 00:27:48;;;;;;;4.68;3.35;;;12.90;99.90;;;;;;5071948;28;20555;-59
2023/05/06 00:30:14;;;;;;;3.70;3.28;;;12.90;99.90;;;;;;5072000;28;20052;-59
2023/05/06 00:32:40;;;;;;;3.80;3.50;;;12.90;99.90;;;;;;5071917;28;20368;-58
2023/05/06 00:35:06;;;;;;;4.72;3.72;;;12.80;99.90;;;;;;5072196;28;20056;-58
2023/05/06 00:37:32;;;;;;;4.30;3.40;;;12.90;99.90;;;;;;5071693;28;20032;-59
2023/05/06 00:39:57;;;;;;;5.57;3.58;;;12.80;99.90;;;;;;5072099;28;20066;-58
2023/05/06 00:42:23;;;;;;;9.70;3.42;;;12.80;99.90;;;;;;5071940;28;20024;-58
2023/05/06 00:44:49;;;;;;;4.30;3.38;;;12.80;99.90;;;;;;5071768;28;20448;-58
2023/05/06 00:47:16;;;;;;;5.32;3.75;;;12.80;99.90;;;;;;5071895;28;20702;-59
2023/05/06 00:49:42;;;;;;;6.57;3.70;;;12.80;99.90;;;;;;5071714;28;20067;-58
2023/05/06 00:52:08;;;;;;;6.03;3.70;;;12.80;99.90;;;;;;5071879;28;20048;-59
2023/05/06 00:54:34;;;;;;;5.72;4.30;;;12.90;99.90;;;;;;5071732;28;20028;-59
2023/05/06 00:57:01;;;;;;;5.80;3.58;;;12.90;99.90;;;;;;5070795;28;20060;-59
2023/05/06 00:59:27;;;;;;;4.97;3.40;;;13.00;99.90;;;;;;5070240;28;20169;-58
2023/05/06 01:01:52;;;;;;;4.57;3.45;;;13.00;99.90;;;;;;5071765;28;20020;-58
2023/05/06 01:04:20;;;;;;;5.45;3.10;;;12.90;99.90;;;;;;5070202;28;20052;-58
2023/05/06 01:07:00;;;;;;;6.53;3.78;;;12.90;99.90;;;;;;5071263;28;20028;-58
2023/05/06 01:09:58;;;;;;;6.13;3.53;;;12.90;99.90;;;;;;5071472;28;20371;-58
2023/05/06 01:12:29;;;;;;;3.60;3.15;;;12.90;99.90;;;;;;5066847;28;20048;-59
2023/05/06 01:15:41;;;;;;;3.65;3.10;;;12.90;99.90;;;;;;5071621;28;20032;-58
2023/05/06 01:18:16;;;;;;;7.38;3.15;;;12.90;99.90;;;;;;5030903;28;20037;-59
2023/05/06 01:20:45;;;;;;;4.85;3.25;;;12.80;99.90;;;;;;5047841;28;20041;-58
2023/05/06 01:23:14;;;;;;;3.20;2.90;;;12.70;99.90;;;;;;5065573;28;20086;-59
2023/05/06 01:25:40;;;;;;;6.25;3.28;;;12.70;99.90;;;;;;5071060;28;20527;-58
2023/05/06 01:28:09;;;;;;;3.85;3.47;;;12.60;99.90;;;;;;5071345;28;20044;-58
2023/05/06 01:31:02;;;;;;;5.30;4.07;;;12.60;99.90;;;;;;5071297;28;20017;-58
2023/05/06 01:34:12;;;;;;;4.50;3.57;;;12.60;99.90;;;;;;5070925;28;20460;-59
2023/05/06 01:36:48;;;;;;;5.22;3.55;;;12.60;99.90;;;;;;5071221;28;20021;-59
2023/05/06 01:39:23;;;;;;;4.88;3.83;;;12.60;99.90;;;;;;5071429;28;20082;-58
2023/05/06 01:41:50;;;;;;;7.95;3.70;;;12.50;99.90;;;;;;5071519;28;20044;-58
2023/05/06 01:44:17;;;;;;;4.38;3.47;;;12.50;99.90;;;;;;5071205;28;20337;-58
2023/05/06 01:46:44;;;;;;;5.30;4.07;;;12.50;99.90;;;;;;5070501;28;20033;-59
2023/05/06 01:49:10;;;;;;;5.32;3.67;;;12.50;99.90;;;;;;5070798;28;20024;-58
2023/05/06 01:51:37;;;;;;;6.80;4.15;;;12.50;99.90;;;;;;5071045;28;20031;-59
2023/05/06 01:54:03;;;;;;;7.28;3.70;;;12.50;99.90;;;;;;5071501;28;20107;-58
2023/05/06 01:56:31;;;;;;;5.95;3.47;;;12.50;99.90;;;;;;5069678;28;20697;-58
2023/05/06 01:58:58;;;;;;;3.92;2.97;;;12.60;99.90;;;;;;5071134;28;20052;-58
2023/05/06 02:01:23;;;;;;;7.65;3.13;;;12.60;99.90;;;;;;5070486;28;20355;-59
2023/05/06 02:03:49;;;;;;;6.03;3.15;;;12.60;99.90;;;;;;5070905;28;20056;-58
2023/05/06 02:06:15;;;;;;;4.28;3.30;;;12.60;99.90;;;;;;5071061;28;20738;-58
2023/05/06 02:08:40;;;;;;;5.20;4.38;;;12.60;99.90;;;;;;5073193;28;20020;-59
2023/05/06 02:11:06;;;;;;;4.25;3.75;;;12.50;99.90;;;;;;5074157;28;20029;-58
2023/05/06 02:13:32;;;;;;;10.25;3.88;;;12.40;99.90;;;;;;5074523;28;20035;-58
2023/05/06 02:15:57;;;;;;;4.10;3.65;;;12.40;99.90;;;;;;5074613;28;20029;-58
2023/05/06 02:18:24;;;;;;;7.75;3.63;;;12.40;99.90;;;;;;5073210;28;20013;-58
2023/05/06 02:20:50;;;;;;;6.72;3.50;;;12.40;99.90;;;;;;5074929;28;20077;-58
2023/05/06 02:23:16;;;;;;;7.47;3.42;;;12.50;99.90;;;;;;5073102;28;20379;-58
2023/05/06 02:25:42;;;;;;;6.20;3.20;;;12.60;99.90;;;;;;5074078;28;20032;-58
2023/05/06 02:28:07;;;;;;;5.78;2.92;;;12.60;99.90;;;;;;5074491;28;20027;-58
2023/05/06 02:30:33;;;;;;;4.43;2.88;;;12.60;99.90;;;;;;5073969;28;20352;-58
2023/05/06 02:32:59;;;;;;;2.60;2.40;;;12.60;99.90;;;;;;5074447;28;20021;-59
2023/05/06 02:35:25;;;;;;;8.88;3.10;;;12.70;99.90;;;;;;5074111;28;20020;-58
2023/05/06 02:37:50;;;;;;;4.82;2.88;;;12.60;99.90;;;;;;5074098;28;20060;-58
2023/05/06 02:40:16;;;;;;;3.80;2.85;;;12.70;99.90;;;;;;5074607;28;20032;-59
2023/05/06 02:42:42;;;;;;;3.38;2.90;;;12.70;99.90;;;;;;5074806;28;20020;-58
2023/05/06 02:45:08;;;;;;;4.90;3.17;;;12.70;99.90;;;;;;5074304;28;20017;-59
2023/05/06 02:47:34;;;;;;;3.40;2.85;;;12.70;99.90;;;;;;5072861;28;20643;-59
2023/05/06 02:49:59;;;;;;;5.05;3.38;;;12.80;99.90;;;;;;5074226;28;20035;-58
2023/05/06 02:52:25;;;;;;;3.97;3.03;;;12.70;99.90;;;;;;5074035;28;20105;-58
2023/05/06 02:54:51;;;;;;;3.85;3.13;;;12.70;99.90;;;;;;5073899;28;20165;-59
2023/05/06 02:57:16;;;;;;;3.45;2.85;;;12.60;99.90;;;;;;5074570;28;20048;-58
2023/05/06 02:59:42;;;;;;;6.53;2.67;;;12.70;99.90;;;;;;5073737;28;20025;-57
2023/05/06 03:02:07;;;;;;;2.67;2.33;;;12.70;99.90;;;;;;5073952;28;20486;-58
2023/05/06 03:04:33;;;;;;;5.45;2.75;;;12.70;99.90;;;;;;5073591;28;20136;-58
2023/05/06 03:06:59;;;;;;;2.70;2.50;;;12.80;99.90;;;;;;5073962;28;20040;-58
2023/05/06 03:09:24;;;;;;;4.97;2.80;;;12.80;99.90;;;;;;5073557;28;20032;-58
2023/05/06 03:11:50;;;;;;;3.22;2.63;;;12.80;99.90;;;;;;5073844;28;20078;-57
2023/05/06 03:14:16;;;;;;;3.42;2.45;;;12.70;99.70;;;;;;5073652;28;20024;-58
2023/05/06 03:16:41;;;;;;;4.68;2.58;;;12.70;99.40;;;;;;5073997;28;20035;-58
2023/05/06 03:19:08;;;;;;;3.50;2.67;;;12.60;99.90;;;;;;5072794;28;20403;-59
2023/05/06 03:21:33;;;;;;;3.83;2.80;;;12.60;99.90;;;;;;5073621;28;20025;-58
2023/05/06 03:23:59;;;;;;;3.25;2.92;;;12.60;99.90;;;;;;5073467;28;20012;-59
2023/05/06 03:26:25;;;;;;;3.00;2.80;;;12.60;99.90;;;;;;5073733;28;20032;-58
2023/05/06 03:28:51;;;;;;;6.05;3.10;;;12.60;99.90;;;;;;5073396;28;20441;-59
2023/05/06 03:31:16;;;;;;;3.47;3.17;;;12.50;99.90;;;;;;5072915;28;20391;-58
2023/05/06 03:33:42;;;;;;;5.43;2.85;;;12.50;99.90;;;;;;5073140;28;20028;-58
2023/05/06 03:36:08;;;;;;;3.15;2.90;;;12.60;99.90;;;;;;5073129;28;20039;-58
2023/05/06 03:38:33;;;;;;;3.95;3.08;;;12.60;99.90;;;;;;5072840;28;20040;-58
2023/05/06 03:40:59;;;;;;;3.08;2.83;;;12.60;99.90;;;;;;5073238;28;20115;-58
2023/05/06 03:43:25;;;;;;;3.33;2.75;;;12.60;99.90;;;;;;5073028;28;20472;-58
2023/05/06 03:45:50;;;;;;;3.35;2.85;;;12.70;99.90;;;;;;5072918;28;20099;-58
2023/05/06 03:48:16;;;;;;;3.00;2.70;;;12.70;99.90;;;;;;5073067;28;20021;-58
2023/05/06 03:50:42;;;;;;;2.50;2.30;;;12.70;99.90;;;;;;5073013;28;20052;-57
2023/05/06 03:53:07;;;;;;;5.28;3.10;;;12.70;99.90;;;;;;5071539;28;20059;-58
2023/05/06 03:55:33;;;;;;;4.95;2.72;;;12.70;99.90;;;;;;5072600;28;20103;-58
2023/05/06 03:58:00;;;;;;;2.88;2.67;;;12.70;99.90;;;;;;5072904;28;20048;-58
2023/05/06 04:00:25;;;;;;;3.90;3.03;;;12.60;99.90;;;;;;5072336;28;20421;-58
2023/05/06 04:02:51;;;;;;;5.43;2.95;;;12.60;99.90;;;;;;5072529;28;20133;-58
2023/05/06 04:05:17;;;;;;;4.50;2.88;;;12.60;99.90;;;;;;5072698;28;20081;-58
2023/05/06 04:07:42;;;;;;;4.80;3.30;;;12.60;99.70;;;;;;5072364;28;20039;-57
2023/05/06 04:10:08;;;;;;;3.53;2.90;;;12.60;99.40;;;;;;5072390;28;20029;-58
2023/05/06 04:12:34;;;;;;;4.93;3.13;;;12.60;99.70;;;;;;5070910;28;20028;-58
2023/05/06 04:14:59;;;;;;;2.58;2.38;;;12.50;99.90;;;;;;5071503;28;20024;-58
2023/05/06 04:17:25;;;;;;;7.07;2.70;;;12.50;99.90;;;;;;5072671;28;20029;-58
2023/05/06 04:19:52;;;;;;;4.90;3.00;;;12.50;99.90;;;;;;5072721;28;20028;-58
2023/05/06 04:22:18;;;;;;;3.05;2.80;;;12.50;99.90;;;;;;5071878;28;20024;-58
2023/05/06 04:24:44;;;;;;;3.50;2.47;;;12.50;99.90;;;;;;5072336;28;20016;-58
2023/05/06 04:27:10;;;;;;;2.90;2.63;;;12.60;99.90;;;;;;5072192;28;20082;-58
2023/05/06 04:29:36;;;;;;;3.95;2.60;;;12.60;99.70;;;;;;5071700;28;20353;-58
2023/05/06 04:32:03;;;;;;;6.80;3.58;;;12.60;99.50;;;;;;5071116;28;20039;-57
2023/05/06 04:34:29;;;;;;;5.70;2.65;;;12.50;99.80;;;;;;5072033;28;20376;-58
2023/05/06 04:36:56;;;;;;;5.80;3.47;;;12.50;99.90;;;;;;5071830;28;20054;-58
2023/05/06 04:39:23;;;;;;;6.10;2.80;;;12.50;99.90;;;;;;5071754;28;20012;-59
2023/05/06 04:41:48;;;;;;;4.45;3.25;;;12.60;99.90;;;;;;5072362;28;20033;-58
2023/05/06 04:44:14;;;;;;;4.30;3.35;;;12.60;99.90;;;;;;5071875;28;20543;-58
2023/05/06 04:46:40;;;;;;;3.03;2.83;;;12.60;99.90;;;;;;5071696;28;20027;-59
2023/05/06 04:49:06;;;;;;;2.88;2.65;;;12.70;99.90;;;;;;5071632;28;20083;-58
2023/05/06 04:51:32;;;;;;;5.97;3.17;;;12.70;99.90;;;;;;5071442;28;20024;-58
2023/05/06 04:53:57;;;;;;;7.13;3.15;;;12.70;99.90;;;;;;5071866;28;20027;-57
2023/05/06 04:56:23;;;;;;;7.53;2.80;;;12.70;99.90;;;;;;5071771;28;20492;-57
2023/05/06 04:58:49;;;;;;;3.13;2.90;;;12.80;99.90;;;;;;5072113;28;20028;-58
2023/05/06 05:01:14;;;;;;;4.32;3.47;;;12.80;99.90;;;;;;5071821;28;20480;-58
2023/05/06 05:03:40;;;;;;;3.22;2.65;;;12.90;99.90;;;;;;5071321;28;20044;-57
2023/05/06 05:06:06;;;;;;;7.70;3.15;;;12.80;99.90;;;;;;5071929;28;20048;-58
2023/05/06 05:08:31;;;;;;;8.93;2.95;;;12.90;99.90;;;;;;5071982;28;20028;-58
2023/05/06 05:10:57;;;;;;;14.38;2.83;;;12.90;99.90;;;;;;5071459;28;20643;-58
2023/05/06 05:13:23;;;;;;;7.55;2.55;;;13.00;99.80;;;;;;5071678;28;20025;-58
2023/05/06 05:15:48;;;;;;;3.17;2.47;;;13.10;99.20;;;;;;5070491;28;20506;-58
2023/05/06 05:18:14;;;;;;;9.05;3.10;;;13.20;99.90;;;;;;5071642;28;20020;-58
2023/05/06 05:20:40;;;;;;;3.05;2.60;;;13.30;99.30;;;;;;5071129;28;20024;-58
2023/05/06 05:23:06;;;;;;;3.25;2.90;;;13.40;98.80;;;;;;5071519;28;20024;-59
2023/05/06 05:25:35;;;;;;;5.28;2.88;;;13.50;97.50;;;;;;5070030;28;20040;-58
2023/05/06 05:28:01;;;;;;;4.65;2.38;;;13.60;97.20;;;;;;5070302;28;20036;-58
2023/05/06 05:30:26;;;;;;;3.95;2.40;;;13.60;96.80;;;;;;5071163;28;20029;-58
2023/05/06 05:32:52;;;;;;;2.25;2.05;;;13.70;94.80;;;;;;5071580;28;20027;-58
2023/05/06 05:35:17;;;;;;;2.70;2.50;;;13.80;94.40;;;;;;5071389;28;20502;-58
2023/05/06 05:37:43;;;;;;;4.50;2.13;;;13.90;92.00;;;;;;5070964;28;20024;-58
2023/05/06 05:40:09;;;;;;;3.72;2.15;;;14.10;87.80;;;;;;5071145;28;20024;-58
2023/05/06 05:42:35;;;;;;;3.13;2.15;;;14.10;86.00;;;;;;5071954;28;20085;-58
2023/05/06 05:45:05;;;;;;;3.65;2.15;;;14.40;86.20;;;;;;5073906;28;20551;-58
2023/05/06 05:47:31;;;;;;;3.47;3.13;;;14.50;83.10;;;;;;5073833;28;20120;-58
2023/05/06 05:49:56;;;;;;;2.78;2.15;;;14.50;81.60;;;;;;5074838;28;20119;-59
2023/05/06 05:52:22;;;;;;;2.85;2.60;;;14.50;80.70;;;;;;5075038;28;20032;-59
2023/05/06 05:54:50;;;;;;;3.03;2.67;;;14.40;75.00;;;;;;5075022;28;20064;-59
2023/05/06 05:57:15;;;;;;;4.50;2.55;;;14.40;81.90;;;;;;5074823;28;20024;-58
2023/05/06 05:59:41;;;;;;;3.47;2.50;;;14.50;82.60;;;;;;5074774;28;20024;-58
2023/05/06 06:02:06;;;;;;;3.15;2.40;;;14.40;88.60;;;;;;5075270;28;20155;-58
2023/05/06 06:04:32;;;;;;;3.60;3.22;;;14.60;75.00;;;;;;5074740;28;20075;-57
2023/05/06 06:07:00;;;;;;;2.95;2.47;;;14.70;75.80;;;;;;5074985;28;20029;-59
2023/05/06 06:09:25;;;;;;;2.75;2.55;;;14.70;64.90;;;;;;5073364;28;20029;-59
2023/05/06 06:11:51;;;;;;;7.85;3.15;;;14.70;77.00;;;;;;5074765;28;20029;-59
2023/05/06 06:14:17;;;;;;;4.72;2.92;;;14.60;77.80;;;;;;5074460;28;20024;-58
2023/05/06 06:16:42;;;;;;;2.25;2.08;;;14.70;77.90;;;;;;5074408;28;20109;-59
2023/05/06 06:19:08;;;;;;;3.00;2.60;;;14.80;70.70;;;;;;5072876;28;20036;-59
2023/05/06 06:21:34;;;;;;;4.30;3.22;;;14.80;69.60;;;;;;5074358;28;20021;-59
2023/05/06 06:24:00;;;;;;;2.78;2.58;;;14.80;69.90;;;;;;5056323;28;20028;-59
2023/05/06 06:26:26;;;;;;;2.95;2.67;;;14.80;62.90;;;;;;5073636;28;20479;-59
2023/05/06 06:28:51;;;;;;;4.65;3.17;;;14.70;72.50;;;;;;5074018;28;20025;-59
2023/05/06 06:31:17;;;;;;;4.40;2.58;;;14.70;66.70;;;;;;5073907;28;20048;-59
2023/05/06 06:33:43;;;;;;;2.90;2.70;;;14.70;81.80;;;;;;5072663;28;20029;-59
2023/05/06 06:36:09;;;;;;;5.55;2.53;;;14.70;75.30;;;;;;5074365;28;20031;-58
2023/05/06 06:38:35;;;;;;;3.25;2.72;;;14.90;76.40;;;;;;5074342;28;20039;-58
2023/05/06 06:41:00;;;;;;;6.10;2.40;;;15.00;56.70;;;;;;5074078;28;20028;-59
2023/05/06 06:43:26;;;;;;;5.57;3.33;;;15.20;70.50;;;;;;5074277;28;20107;-59
2023/05/06 06:45:52;;;;;;;5.93;2.65;;;15.50;51.10;;;;;;5074235;28;20016;-58
2023/05/06 06:48:18;;;;;;;6.03;2.78;;;15.70;29.10;;;;;;5074188;28;20111;-59
2023/05/06 06:50:44;;;;;;;5.90;2.65;;;15.80;33.20;;;;;;5072540;28;20089;-59
2023/05/06 06:53:10;;;;;;;4.97;2.92;;;15.80;43.50;;;;;;5074193;28;20016;-60
2023/05/06 06:55:35;;;;;;;12.48;3.17;;;15.90;42.90;;;;;;5072838;28;20099;-60
2023/05/06 06:58:01;;;;;;;2.50;2.30;;;16.20;23.90;;;;;;5073994;28;20032;-60
2023/05/06 07:00:27;;;;;;;6.35;2.25;;;16.40;20.00;;;;;;5073152;28;20090;-60
2023/05/06 07:02:53;;;;;;;3.35;2.33;;;16.60;4.00;;;;;;5073515;28;20090;-59
2023/05/06 07:05:19;;;;;;;2.85;2.10;;;16.60;1.00;;;;;;5073747;28;20020;-60
2023/05/06 07:07:44;;;;;;;2.80;2.30;;;16.50;23.30;;;;;;5073601;28;20112;-59
2023/05/06 07:10:10;;;;;;;3.85;2.38;;;16.60;18.40;;;;;;5072612;28;20036;-59
2023/05/06 07:12:36;;;;;;;3.72;2.50;;;16.90;10.70;;;;;;5072561;28;20028;-60
2023/05/06 07:15:05;;;;;;;3.92;2.45;;;17.00;1.00;;;;;;5073127;28;20031;-59
2023/05/06 07:17:34;;;;;;;5.93;2.40;;;17.10;12.20;;;;;;5072640;28;20028;-60
2023/05/06 07:20:00;;;;;;;3.45;2.40;;;16.80;1.00;;;;;;5072371;28;20107;-59
2023/05/06 07:22:27;;;;;;;5.50;2.30;;;16.80;1.00;;;;;;5072456;28;20108;-59
2023/05/06 07:24:53;;;;;;;5.05;2.85;;;17.10;1.00;;;;;;5073075;28;20017;-58
2023/05/06 07:27:19;;;;;;;4.97;2.45;;;16.80;1.00;;;;;;5073416;28;20081;-58
2023/05/06 07:29:45;;;;;;;8.38;2.38;;;17.10;1.00;;;;;;5072960;28;20500;-57
2023/05/06 07:32:10;;;;;;;3.30;2.38;;;16.80;1.00;;;;;;5073108;28;20016;-58
2023/05/06 07:34:36;;;;;;;4.47;2.10;;;16.50;1.00;;;;;;5074581;28;20643;-58
2023/05/06 07:37:03;;;;;;;3.03;2.70;;;16.40;1.00;;;;;;5071987;28;20056;-58
2023/05/06 07:39:29;;;;;;;3.33;2.47;;;16.70;10.20;;;;;;5071294;28;20539;-57
2023/05/06 07:41:55;;;;;;;4.93;2.38;;;16.80;1.00;;;;;;5072775;28;20016;-57
2023/05/06 07:44:21;;;;;;;4.18;2.50;;;16.90;1.00;;;;;;5072895;28;20076;-58
2023/05/06 07:46:47;;;;;;;5.93;3.38;;;16.80;1.00;;;;;;5072953;28;20020;-58
2023/05/06 07:49:12;;;;;;;8.40;6.57;;;16.90;1.00;;;;;;5072025;28;20555;-58
2023/05/06 07:51:38;;;;;;;10.55;7.32;;;17.30;1.00;;;;;;5071162;28;20063;-58
2023/05/06 07:54:04;;;;;;;4.47;2.88;;;17.50;1.00;;;;;;5069498;28;20472;-58
2023/05/06 07:56:30;;;;;;;3.78;2.72;;;17.60;1.00;;;;;;5070138;28;20021;-58
2023/05/06 07:58:55;;;;;;;10.05;4.13;;;17.80;1.00;;;;;;5068781;28;20118;-57
2023/05/06 08:01:21;;;;;;;5.22;3.80;;;18.10;1.00;;;;;;5070237;28;20471;-58
2023/05/06 08:03:47;;;;;;;2.70;2.30;;;17.80;1.00;;;;;;5069819;28;20091;-58
2023/05/06 08:06:12;;;;;;;6.07;3.88;;;18.00;1.00;;;;;;5070529;28;20039;-58
2023/05/06 08:08:38;;;;;;;3.90;2.67;;;18.00;1.00;;;;;;5071752;28;20589;-58
2023/05/06 08:11:04;;;;;;;6.60;3.55;;;18.10;1.00;;;;;;5072291;28;20023;-58
2023/05/06 08:13:30;;;;;;;6.95;3.88;;;18.20;1.00;;;;;;5072042;28;20376;-58
2023/05/06 08:15:56;;;;;;;10.75;5.03;;;18.30;1.00;;;;;;5071858;28;20020;-58
2023/05/06 08:18:21;;;;;;;8.35;4.35;;;18.60;1.00;;;;;;5071937;28;20016;-58
2023/05/06 08:20:47;;;;;;;3.22;1.80;;;18.80;1.00;;;;;;5072002;28;20036;-58
2023/05/06 08:23:13;;;;;;;2.72;2.28;;;19.00;1.00;;;;;;5072042;28;20109;-58
2023/05/06 08:25:38;;;;;;;4.10;2.50;;;19.30;99.90;;;;;;5071966;28;20021;-58
2023/05/06 08:28:04;;;;;;;3.40;2.53;;;19.50;99.90;;;;;;5070575;28;20039;-58
2023/05/06 08:30:30;;;;;;;8.02;5.13;;;19.10;99.90;;;;;;5071304;28;20035;-58
2023/05/06 08:32:55;;;;;;;5.00;2.80;;;18.80;99.90;;;;;;5070310;28;20078;-58
2023/05/06 08:35:21;;;;;;;3.95;2.10;;;18.60;99.90;;;;;;5072007;28;20020;-58
2023/05/06 08:37:47;;;;;;;3.03;2.00;;;18.60;99.90;;;;;;5070376;28;20028;-58
2023/05/06 08:40:20;;;;;;;2.58;2.38;;;18.60;1.00;;;;;;5071927;28;20016;-57
2023/05/06 08:42:47;;;;;;;6.35;2.42;;;19.00;99.90;;;;;;5071500;28;20021;-58
2023/05/06 08:45:15;;;;;;;4.30;1.95;;;18.70;99.90;;;;;;5071814;28;20031;-58
2023/05/06 08:47:41;;;;;;;3.25;1.80;;;19.10;99.90;;;;;;5071646;28;20036;-58
2023/05/06 08:50:08;;;;;;;9.48;2.67;;;19.30;1.00;;;;;;5071694;28;20078;-58
2023/05/06 08:52:35;;;;;;;2.63;2.00;;;19.00;99.90;;;;;;5070615;28;20035;-58
2023/05/06 08:55:03;;;;;;;2.70;2.45;;;19.50;1.00;;;;;;5071019;28;20030;-58
2023/05/06 08:57:30;;;;;;;2.92;1.98;;;19.50;31.50;;;;;;5051460;28;20032;-58
2023/05/06 08:59:56;;;;;;;2.55;2.00;;;19.80;99.90;;;;;;5060282;28;20017;-58
2023/05/06 09:02:23;;;;;;;4.55;2.50;;;19.50;1.00;;;;;;5071727;28;20032;-58
2023/05/06 09:04:49;;;;;;;3.78;2.63;;;19.30;99.90;;;;;;5070868;28;20131;-57
2023/05/06 09:07:14;;;;;;;2.47;2.17;;;19.70;99.90;;;;;;5071590;28;20108;-58
2023/05/06 09:09:40;;;;;;;5.60;2.10;;;19.80;99.90;;;;;;5071174;28;20525;-58
2023/05/06 09:12:11;;;;;;;3.92;2.65;;;19.80;1.00;;;;;;5071517;28;20369;-58
2023/05/06 09:14:36;;;;;;;2.20;1.98;;;20.00;99.90;;;;;;5071190;28;20024;-58
2023/05/06 09:17:02;;;;;;;2.60;2.40;;;19.50;99.90;;;;;;5069406;28;20553;-57
2023/05/06 09:19:28;;;;;;;2.80;1.92;;;19.80;99.90;;;;;;5071212;28;20357;-57
2023/05/06 09:21:53;;;;;;;10.13;2.30;;;20.20;99.90;;;;;;5071537;28;20025;-58
2023/05/06 09:24:19;;;;;;;2.67;2.17;;;20.40;99.90;;;;;;5071231;28;20012;-57
2023/05/06 09:26:46;;;;;;;7.13;2.10;;;20.20;99.90;;;;;;5070001;28;20567;-57
2023/05/06 09:29:12;;;;;;;3.28;1.73;;;20.00;99.90;;;;;;5069975;28;20115;-58
2023/05/06 09:31:42;;;;;;;4.78;1.88;;;19.90;75.10;;;;;;5071283;28;20128;-58
2023/05/06 09:34:08;;;;;;;4.28;2.03;;;20.40;99.90;;;;;;5071123;28;20032;-58
2023/05/06 09:36:34;;;;;;;5.78;2.40;;;20.50;48.00;;;;;;5070663;28;20044;-58
2023/05/06 09:38:59;;;;;;;2.90;2.03;;;20.80;99.90;;;;;;5071064;28;20074;-58
2023/05/06 09:41:25;;;;;;;5.18;1.90;;;20.90;99.90;;;;;;5070786;28;20028;-58
2023/05/06 09:43:53;;;;;;;3.08;2.05;;;20.60;1.00;;;;;;5071153;28;20026;-58
2023/05/06 09:46:20;;;;;;;2.58;1.90;;;20.50;99.90;;;;;;5070830;28;20028;-58
2023/05/06 09:48:49;;;;;;;3.33;1.98;;;20.40;99.90;;;;;;5070808;28;20029;-58
2023/05/06 09:51:15;;;;;;;1.92;1.40;;;20.50;99.90;;;;;;5069771;28;20020;-58
2023/05/06 09:53:43;;;;;;;2.58;1.90;;;21.20;99.90;;;;;;5070204;28;20031;-58
2023/05/06 09:56:08;;;;;;;2.90;1.90;;;21.20;1.00;;;;;;5070332;28;20032;-57
2023/05/06 09:58:35;;;;;;;2.25;1.80;;;21.00;1.00;;;;;;5070248;28;20024;-58
2023/05/06 10:01:12;;;;;;;4.65;1.50;;;21.10;99.90;;;;;;5070086;28;20070;-57
2023/05/06 10:03:39;;;;;;;3.65;1.70;;;21.00;1.00;;;;;;5070849;28;20068;-57
2023/05/06 10:06:05;;;;;;;4.95;2.42;;;20.90;1.00;;;;;;5069150;28;20063;-56
2023/05/06 10:08:33;;;;;;;2.83;1.55;;;21.00;1.00;;;;;;5069588;28;20108;-57
2023/05/06 10:11:05;;;;;;;2.30;1.85;;;21.30;1.00;;;;;;5070795;28;20020;-67
2023/05/06 10:13:31;;;;;;;3.13;1.90;;;21.50;99.90;;;;;;5069519;28;20047;-58
2023/05/06 10:16:01;;;;;;;3.78;1.83;;;22.00;1.00;;;;;;5069819;28;20029;-56
2023/05/06 10:18:29;;;;;;;5.20;1.60;;;21.90;99.90;;;;;;5069830;28;20044;-56
2023/05/06 10:20:58;;;;;;;2.90;1.80;;;21.40;99.90;;;;;;5069615;28;20979;-58
2023/05/06 10:24:03;;;;;;;1.80;1.65;;;21.60;99.90;;;;;;5070108;28;20461;-56
2023/05/06 10:26:30;;;;;;;4.28;1.52;;;21.40;1.00;;;;;;5026908;28;20037;-58
2023/05/06 10:28:59;;;;;;;3.20;2.40;;;21.10;99.90;;;;;;5063386;28;20066;-57
2023/05/06 10:31:26;;;;;;;2.47;2.15;;;20.80;1.00;;;;;;5073064;28;20074;-58
2023/05/06 10:33:54;;;;;;;3.25;1.60;;;20.60;99.90;;;;;;5073140;28;20054;-55
2023/05/06 10:36:26;;;;;;;5.75;2.47;;;20.20;99.90;;;;;;5063162;28;20091;-58
2023/05/06 10:38:58;;;;;;;2.35;1.70;;;20.40;90.50;;;;;;5041784;28;20513;-57
2023/05/06 10:41:26;;;;;;;4.00;2.22;;;20.30;99.90;;;;;;5042921;28;20367;-58
2023/05/06 10:43:56;;;;;;;2.58;2.38;;;20.50;1.00;;;;;;5043787;28;20120;-57
2023/05/06 10:46:26;;;;;;;2.08;1.70;;;21.50;1.00;;;;;;5044421;28;20027;-55
2023/05/06 10:49:13;;;;;;;9.35;2.17;;;21.10;92.30;;;;;;5042896;28;20383;-58
2023/05/06 10:51:40;;;;;;;5.95;2.67;;;21.70;99.90;;;;;;5043952;28;20040;-58
2023/05/06 10:54:07;;;;;;;3.60;2.28;;;21.70;1.00;;;;;;5043175;28;20112;-57
2023/05/06 10:56:36;;;;;;;2.50;2.15;;;21.70;1.00;;;;;;5043389;28;20029;-58
2023/05/06 10:59:09;;;;;;;2.95;2.35;;;21.20;1.00;;;;;;5042609;28;20587;-55
2023/05/06 11:01:37;;;;;;;5.90;2.40;;;21.20;99.90;;;;;;5043058;28;20107;-57
2023/05/06 11:04:18;;;;;;;3.47;3.17;;;21.40;1.00;;;;;;5042514;28;20056;-57
2023/05/06 11:06:47;;;;;;;4.97;2.90;;;20.20;1.00;;;;;;5042862;28;20380;-58
2023/05/06 11:09:26;;;;;;;8.90;4.07;;;19.90;98.80;;;;;;5043102;28;20025;-58
2023/05/06 11:12:04;;;;;;;6.07;4.38;;;19.70;99.90;;;;;;5042768;28;20112;-58
2023/05/06 11:14:34;;;;;;;7.28;3.88;;;19.60;99.90;;;;;;5043491;28;20037;-57
2023/05/06 11:17:04;;;;;;;7.03;4.03;;;19.60;99.90;;;;;;5043228;28;20435;-57
2023/05/06 11:19:32;;;;;;;5.90;3.60;;;20.00;99.90;;;;;;5042046;28;20040;-58
2023/05/06 11:21:59;;;;;;;5.03;3.70;;;20.30;1.00;;;;;;5042766;28;20021;-58
2023/05/06 11:24:30;;;;;;;4.45;3.55;;;21.10;1.00;;;;;;5042816;28;20048;-58
2023/05/06 11:26:58;;;;;;;6.05;3.13;;;21.50;99.90;;;;;;5043284;28;20028;-58
2023/05/06 11:29:24;;;;;;;6.13;4.40;;;21.60;99.90;;;;;;5042771;28;20112;-58
2023/05/06 11:31:52;;;;;;;11.93;3.08;;;21.40;99.90;;;;;;5042754;28;20061;-58
2023/05/06 11:34:24;;;;;;;13.60;5.65;;;21.30;99.90;;;;;;5043097;28;20064;-58
2023/05/06 11:36:57;;;;;;;3.10;2.40;;;21.70;99.90;;;;;;5042901;28;20040;-56
2023/05/06 11:39:22;;;;;;;2.80;1.50;;;22.40;99.90;;;;;;5042211;28;20049;-58
2023/05/06 11:41:48;;;;;;;2.50;2.03;;;22.60;1.00;;;;;;5041622;28;20033;-56
2023/05/06 11:44:23;;;;;;;4.93;1.67;;;23.20;99.90;;;;;;5043277;28;20028;-58
2023/05/06 11:46:50;;;;;;;2.67;1.80;;;24.70;1.00;;;;;;5042434;28;20679;-58
2023/05/06 11:49:16;;;;;;;6.55;2.55;;;23.90;99.90;;;;;;5041406;28;20644;-58
2023/05/06 11:51:41;;;;;;;4.88;2.67;;;23.60;1.00;;;;;;5041623;28;20129;-58
2023/05/06 11:54:09;;;;;;;2.88;2.55;;;23.10;93.40;;;;;;5043604;28;20120;-58
2023/05/06 11:56:49;;;;;;;2.50;2.30;;;22.20;55.20;;;;;;5042509;28;20488;-58
2023/05/06 11:59:17;;;;;;;5.82;1.98;;;23.20;99.90;;;;;;5042346;28;20017;-58
2023/05/06 12:01:44;;;;;;;3.53;2.00;;;24.00;99.90;;;;;;5040996;28;22015;-58
2023/05/06 12:04:10;;;;;;;2.15;1.33;;;24.60;99.90;;;;;;5041534;28;20628;-58
2023/05/06 12:06:37;;;;;;;2.90;1.70;;;25.90;1.00;;;;;;5041735;28;20043;-58
2023/05/06 12:09:05;;;;;;;2.67;1.20;;;28.30;1.00;;;;;;5043519;28;20032;-58
2023/05/06 12:11:33;;;;;;;3.15;1.60;;;28.20;99.90;;;;;;5042938;28;20056;-58
2023/05/06 12:14:00;;;;;;;2.58;2.00;;;26.60;99.90;;;;;;5042128;28;20029;-58
2023/05/06 12:16:26;;;;;;;3.17;2.38;;;25.00;99.90;;;;;;5041891;28;20036;-58
2023/05/06 12:18:53;;;;;;;8.70;2.30;;;22.80;1.00;;;;;;5041457;28;20407;-58
2023/05/06 12:21:23;;;;;;;3.53;2.40;;;21.60;99.90;;;;;;5041794;28;20021;-58
2023/05/06 12:24:00;;;;;;;8.13;3.28;;;21.00;54.90;;;;;;5041995;28;20033;-58
2023/05/06 12:26:26;;;;;;;9.32;3.25;;;20.50;99.90;;;;;;5041866;28;20029;-58
2023/05/06 12:29:14;;;;;;;5.13;3.65;;;20.30;99.90;;;;;;5041986;28;20387;-58
2023/05/06 12:31:40;;;;;;;4.00;3.45;;;21.40;81.60;;;;;;5041878;28;20037;-56
2023/05/06 12:34:06;;;;;;;5.53;4.25;;;21.30;99.90;;;;;;5040286;28;20476;-58
2023/05/06 12:36:32;;;;;;;3.78;2.83;;;22.70;1.00;;;;;;5040833;28;20033;-58
2023/05/06 12:38:59;;;;;;;5.80;2.53;;;24.00;99.90;;;;;;5040501;28;20527;-58
2023/05/06 12:41:37;;;;;;;5.45;1.73;;;25.60;1.00;;;;;;5041208;28;20033;-58
2023/05/06 12:44:24;;;;;;;3.33;1.63;;;27.30;99.90;;;;;;5042892;28;20068;-58
2023/05/06 12:46:51;;;;;;;5.53;2.10;;;28.60;99.90;;;;;;5040964;28;20029;-58
2023/05/06 12:49:17;;;;;;;2.80;1.33;;;28.30;99.90;;;;;;5041322;28;20144;-58